sensor_id;sensor_type;location;lat;lon;timestamp;temperature;humidity
48376;DHT22;34178;50.904;11.560;2023-08-24T00:00:31;15.30;99.90
48376;DHT22;34178;50.904;11.560;2023-08-24T00:03:00;15.20;99.90
48376;DHT22;34178;50.904;11.560;2023-08-24T00:05:28;15.20;99.90
48376;DHT22;34178;50.904;11.560;2023-08-24T00:07:53;15.20;99.90
48376;DHT22;34178;50.904;11.560;2023-08-24T00:10:19;15.20;99.90
48376;DHT22;34178;50.904;11.560;2023-08-24T00:12:45;15.20;99.90
48376;DHT22;34178;50.904;11.560;2023-08-24T00:15:10;15.10;99.90
48376;DHT22;34178;50.904;11.560;2023-08-24T00:17:37;15.10;99.90
48376;DHT22;34178;50.904;11.560;2023-08-24T00:20:05;15.10;99.90
48376;DHT22;34178;50.904;11.560;2023-08-24T00:22:33;15.10;99.90
48376;DHT22;34178;50.904;11.560;2023-08-24T00:24:58;15.10;99.90
48376;DHT22;34178;50.904;11.560;2023-08-24T00:27:24;15.00;99.90
48376;DHT22;34178;50.904;11.560;2023-08-24T00:29:50;15.00;99.90
48376;DHT22;34178;50.904;11.560;2023-08-24T00:32:15;15.00;99.90
48376;DHT22;34178;50.904;11.560;2023-08-24T00:34:41;15.00;99.90
48376;DHT22;34178;50.904;11.560;2023-08-24T00:37:07;14.90;99.90
48376;DHT22;34178;50.904;11.560;2023-08-24T00:39:32;14.90;99.90
48376;DHT22;34178;50.904;11.560;2023-08-24T00:41:58;14.90;99.90
48376;DHT22;34178;50.904;11.560;2023-08-24T00:44:24;14.80;99.90
48376;DHT22;34178;50.904;11.560;2023-08-24T00:46:50;14.80;99.90
48376;DHT22;34178;50.904;11.560;2023-08-24T00:49:16;14.80;99.90
48376;DHT22;34178;50.904;11.560;2023-08-24T00:51:41;14.80;99.90
48376;DHT22;34178;50.904;11.560;2023-08-24T00:54:07;14.80;99.90
48376;DHT22;34178;50.904;11.560;2023-08-24T00:56:33;14.70;99.90
48376;DHT22;34178;50.904;11.560;2023-08-24T00:58:59;14.70;99.90
48376;DHT22;34178;50.904;11.560;2023-08-24T01:01:24;14.70;99.90
48376;DHT22;34178;50.904;11.560;2023-08-24T01:03:50;14.70;99.90
48376;DHT22;34178;50.904;11.560;2023-08-24T01:06:16;14.70;99.90
48376;DHT22;34178;50.904;11.560;2023-08-24T01:08:42;14.70;99.90
48376;DHT22;34178;50.904;11.560;2023-08-24T01:14:16;14.70;99.90
48376;DHT22;34178;50.904;11.560;2023-08-24T01:16:46;14.60;99.90
48376;DHT22;34178;50.904;11.560;2023-08-24T01:19:37;14.60;99.90
48376;DHT22;34178;50.904;11.560;2023-08-24T01:22:10;14.60;99.90
48376;DHT22;34178;50.904;11.560;2023-08-24T01:24:47;14.50;99.90
48376;DHT22;34178;50.904;11.560;2023-08-24T01:27:15;14.50;99.90
48376;DHT22;34178;50.904;11.560;2023-08-24T01:29:41;14.50;99.90
48376;DHT22;34178;50.904;11.560;2023-08-24T01:32:10;14.50;99.90
48376;DHT22;34178;50.904;11.560;2023-08-24T01:34:38;14.50;99.90
48376;DHT22;34178;50.904;11.560;2023-08-24T01:37:05;14.40;99.90
48376;DHT22;34178;50.904;11.560;2023-08-24T01:39:54;14.40;99.90
48376;DHT22;34178;50.904;11.560;2023-08-24T01:42:26;14.40;99.90
48376;DHT22;34178;50.904;11.560;2023-08-24T01:44:56;14.40;99.90
48376;DHT22;34178;50.904;11.560;2023-08-24T01:47:25;14.40;99.90
48376;DHT22;34178;50.904;11.560;2023-08-24T01:49:51;14.40;99.90
48376;DHT22;34178;50.904;11.560;2023-08-24T01:52:17;14.30;99.90
48376;DHT22;34178;50.904;11.560;2023-08-24T01:54:43;14.30;99.90
48376;DHT22;34178;50.904;11.560;2023-08-24T01:57:10;14.30;99.90
48376;DHT22;34178;50.904;11.560;2023-08-24T01:59:35;14.30;99.90
48376;DHT22;34178;50.904;11.560;2023-08-24T02:02:01;14.20;99.90
48376;DHT22;34178;50.904;11.560;2023-08-24T02:04:28;14.20;99.90
48376;DHT22;34178;50.904;11.560;2023-08-24T02:06:53;14.20;99.90
48376;DHT22;34178;50.904;11.560;2023-08-24T02:09:19;14.10;99.90
48376;DHT22;34178;50.904;11.560;2023-08-24T02:11:45;14.10;99.90
48376;DHT22;34178;50.904;11.560;2023-08-24T02:14:10;14.10;99.90
48376;DHT22;34178;50.904;11.560;2023-08-24T02:16:36;14.10;99.90
48376;DHT22;34178;50.904;11.560;2023-08-24T02:19:02;14.10;99.90
48376;DHT22;34178;50.904;11.560;2023-08-24T02:21:27;14.00;99.90
48376;DHT22;34178;50.904;11.560;2023-08-24T02:23:53;14.00;99.90
48376;DHT22;34178;50.904;11.560;2023-08-24T02:26:18;14.00;99.90
48376;DHT22;34178;50.904;11.560;2023-08-24T02:28:45;14.00;99.90
48376;DHT22;34178;50.904;11.560;2023-08-24T02:31:11;13.90;99.90
48376;DHT22;34178;50.904;11.560;2023-08-24T02:33:37;13.90;99.90
48376;DHT22;34178;50.904;11.560;2023-08-24T02:36:03;13.90;99.90
48376;DHT22;34178;50.904;11.560;2023-08-24T02:38:28;13.90;99.90
48376;DHT22;34178;50.904;11.560;2023-08-24T02:41:04;13.90;99.90
48376;DHT22;34178;50.904;11.560;2023-08-24T02:43:31;13.90;99.90
48376;DHT22;34178;50.904;11.560;2023-08-24T02:46:01;13.90;99.90
48376;DHT22;34178;50.904;11.560;2023-08-24T02:48:27;13.80;99.90
48376;DHT22;34178;50.904;11.560;2023-08-24T02:50:53;13.80;99.90
48376;DHT22;34178;50.904;11.560;2023-08-24T02:53:18;13.80;99.90
48376;DHT22;34178;50.904;11.560;2023-08-24T02:55:44;13.80;99.90
48376;DHT22;34178;50.904;11.560;2023-08-24T02:58:09;13.70;99.90
48376;DHT22;34178;50.904;11.560;2023-08-24T03:00:38;13.80;99.90
48376;DHT22;34178;50.904;11.560;2023-08-24T03:03:04;13.70;99.90
48376;DHT22;34178;50.904;11.560;2023-08-24T03:05:31;13.70;99.90
48376;DHT22;34178;50.904;11.560;2023-08-24T03:07:58;13.70;99.90
48376;DHT22;34178;50.904;11.560;2023-08-24T03:10:24;13.70;99.90
48376;DHT22;34178;50.904;11.560;2023-08-24T03:12:49;13.70;99.90
48376;DHT22;34178;50.904;11.560;2023-08-24T03:15:15;13.70;99.90
48376;DHT22;34178;50.904;11.560;2023-08-24T03:17:41;13.70;99.90
48376;DHT22;34178;50.904;11.560;2023-08-24T03:20:08;13.60;99.90
48376;DHT22;34178;50.904;11.560;2023-08-24T03:22:34;13.60;99.90
48376;DHT22;34178;50.904;11.560;2023-08-24T03:24:59;13.60;99.90
48376;DHT22;34178;50.904;11.560;2023-08-24T03:27:25;13.60;99.90
48376;DHT22;34178;50.904;11.560;2023-08-24T03:29:53;13.60;99.90
48376;DHT22;34178;50.904;11.560;2023-08-24T03:32:19;13.50;99.90
48376;DHT22;34178;50.904;11.560;2023-08-24T03:34:44;13.50;99.90
48376;DHT22;34178;50.904;11.560;2023-08-24T03:37:10;13.50;99.90
48376;DHT22;34178;50.904;11.560;2023-08-24T03:39:37;13.50;99.90
48376;DHT22;34178;50.904;11.560;2023-08-24T03:42:03;13.50;99.90
48376;DHT22;34178;50.904;11.560;2023-08-24T03:44:29;13.50;99.90
48376;DHT22;34178;50.904;11.560;2023-08-24T03:46:55;13.40;99.90
48376;DHT22;34178;50.904;11.560;2023-08-24T03:49:20;13.40;99.90
48376;DHT22;34178;50.904;11.560;2023-08-24T03:51:46;13.40;99.90
48376;DHT22;34178;50.904;11.560;2023-08-24T03:54:12;13.40;99.90
48376;DHT22;34178;50.904;11.560;2023-08-24T03:56:37;13.40;99.90
48376;DHT22;34178;50.904;11.560;2023-08-24T03:59:03;13.40;99.90
48376;DHT22;34178;50.904;11.560;2023-08-24T04:01:29;13.30;99.90
48376;DHT22;34178;50.904;11.560;2023-08-24T04:03:54;13.30;99.90
48376;DHT22;34178;50.904;11.560;2023-08-24T04:06:20;13.30;99.90
48376;DHT22;34178;50.904;11.560;2023-08-24T04:08:46;13.30;99.90
48376;DHT22;34178;50.904;11.560;2023-08-24T04:11:11;13.30;99.90
48376;DHT22;34178;50.904;11.560;2023-08-24T04:13:37;13.30;99.90
48376;DHT22;34178;50.904;11.560;2023-08-24T04:16:03;13.20;99.90
48376;DHT22;34178;50.904;11.560;2023-08-24T04:18:29;13.20;99.90
48376;DHT22;34178;50.904;11.560;2023-08-24T04:20:55;13.20;99.90
48376;DHT22;34178;50.904;11.560;2023-08-24T04:23:27;13.30;99.90
48376;DHT22;34178;50.904;11.560;2023-08-24T04:25:54;13.30;99.90
48376;DHT22;34178;50.904;11.560;2023-08-24T04:28:20;13.30;99.90
48376;DHT22;34178;50.904;11.560;2023-08-24T04:30:56;13.30;99.90
48376;DHT22;34178;50.904;11.560;2023-08-24T04:33:22;13.30;99.90
48376;DHT22;34178;50.904;11.560;2023-08-24T04:35:51;13.30;99.90
48376;DHT22;34178;50.904;11.560;2023-08-24T04:38:17;13.40;99.90
48376;DHT22;34178;50.904;11.560;2023-08-24T04:40:50;13.40;99.90
48376;DHT22;34178;50.904;11.560;2023-08-24T04:43:17;13.40;99.90
48376;DHT22;34178;50.904;11.560;2023-08-24T04:45:43;13.40;99.90
48376;DHT22;34178;50.904;11.560;2023-08-24T04:48:10;13.40;99.90
48376;DHT22;34178;50.904;11.560;2023-08-24T04:50:36;13.50;99.90
48376;DHT22;34178;50.904;11.560;2023-08-24T04:53:02;13.50;99.90
48376;DHT22;34178;50.904;11.560;2023-08-24T04:55:27;13.50;99.90
48376;DHT22;34178;50.904;11.560;2023-08-24T04:57:53;13.60;99.90
48376;DHT22;34178;50.904;11.560;2023-08-24T05:00:19;13.60;99.90
48376;DHT22;34178;50.904;11.560;2023-08-24T05:02:44;13.60;99.90
48376;DHT22;34178;50.904;11.560;2023-08-24T05:05:10;13.70;99.90
48376;DHT22;34178;50.904;11.560;2023-08-24T05:07:38;13.70;99.90
48376;DHT22;34178;50.904;11.560;2023-08-24T05:10:04;13.80;99.90
48376;DHT22;34178;50.904;11.560;2023-08-24T05:12:30;13.90;99.90
48376;DHT22;34178;50.904;11.560;2023-08-24T05:14:57;13.90;99.90
48376;DHT22;34178;50.904;11.560;2023-08-24T05:17:23;14.00;99.90
48376;DHT22;34178;50.904;11.560;2023-08-24T05:19:56;14.10;99.90
48376;DHT22;34178;50.904;11.560;2023-08-24T05:22:22;14.10;99.90
48376;DHT22;34178;50.904;11.560;2023-08-24T05:24:47;14.30;99.90
48376;DHT22;34178;50.904;11.560;2023-08-24T05:27:13;14.30;99.90
48376;DHT22;34178;50.904;11.560;2023-08-24T05:29:39;14.40;99.90
48376;DHT22;34178;50.904;11.560;2023-08-24T05:32:04;14.50;99.90
48376;DHT22;34178;50.904;11.560;2023-08-24T05:34:30;14.60;99.90
48376;DHT22;34178;50.904;11.560;2023-08-24T05:36:56;14.60;99.90
48376;DHT22;34178;50.904;11.560;2023-08-24T05:39:21;14.70;99.90
48376;DHT22;34178;50.904;11.560;2023-08-24T05:41:51;14.80;99.90
48376;DHT22;34178;50.904;11.560;2023-08-24T05:44:17;14.90;99.90
48376;DHT22;34178;50.904;11.560;2023-08-24T05:46:45;15.00;99.90
48376;DHT22;34178;50.904;11.560;2023-08-24T05:49:11;15.20;99.90
48376;DHT22;34178;50.904;11.560;2023-08-24T05:51:37;15.20;99.90
48376;DHT22;34178;50.904;11.560;2023-08-24T05:54:03;15.30;99.90
48376;DHT22;34178;50.904;11.560;2023-08-24T05:56:28;15.40;99.90
48376;DHT22;34178;50.904;11.560;2023-08-24T05:58:55;15.40;99.90
48376;DHT22;34178;50.904;11.560;2023-08-24T06:01:20;15.60;99.90
48376;DHT22;34178;50.904;11.560;2023-08-24T06:03:46;15.60;99.90
48376;DHT22;34178;50.904;11.560;2023-08-24T06:06:12;15.70;99.90
48376;DHT22;34178;50.904;11.560;2023-08-24T06:08:38;15.80;99.90
48376;DHT22;34178;50.904;11.560;2023-08-24T06:11:03;15.90;99.90
48376;DHT22;34178;50.904;11.560;2023-08-24T06:13:29;16.00;99.90
48376;DHT22;34178;50.904;11.560;2023-08-24T06:15:54;16.00;99.90
48376;DHT22;34178;50.904;11.560;2023-08-24T06:18:20;16.10;99.90
48376;DHT22;34178;50.904;11.560;2023-08-24T06:20:47;16.20;99.90
48376;DHT22;34178;50.904;11.560;2023-08-24T06:23:16;16.20;99.90
48376;DHT22;34178;50.904;11.560;2023-08-24T06:25:42;16.30;99.90
48376;DHT22;34178;50.904;11.560;2023-08-24T06:28:08;16.40;99.90
48376;DHT22;34178;50.904;11.560;2023-08-24T06:30:43;16.40;99.90
48376;DHT22;34178;50.904;11.560;2023-08-24T06:33:10;16.50;99.90
48376;DHT22;34178;50.904;11.560;2023-08-24T06:35:36;16.60;99.90
48376;DHT22;34178;50.904;11.560;2023-08-24T06:38:03;16.70;99.90
48376;DHT22;34178;50.904;11.560;2023-08-24T06:40:29;16.70;99.90
48376;DHT22;34178;50.904;11.560;2023-08-24T06:42:56;16.80;99.90
48376;DHT22;34178;50.904;11.560;2023-08-24T06:45:22;16.80;99.90
48376;DHT22;34178;50.904;11.560;2023-08-24T06:47:48;16.90;99.90
48376;DHT22;34178;50.904;11.560;2023-08-24T06:50:14;17.00;99.90
48376;DHT22;34178;50.904;11.560;2023-08-24T06:52:41;17.10;99.90
48376;DHT22;34178;50.904;11.560;2023-08-24T06:55:09;17.20;99.90
48376;DHT22;34178;50.904;11.560;2023-08-24T06:57:35;17.30;99.90
48376;DHT22;34178;50.904;11.560;2023-08-24T07:00:01;17.30;99.90
48376;DHT22;34178;50.904;11.560;2023-08-24T07:02:32;17.40;99.90
48376;DHT22;34178;50.904;11.560;2023-08-24T07:04:58;17.50;99.90
48376;DHT22;34178;50.904;11.560;2023-08-24T07:07:23;17.70;99.90
48376;DHT22;34178;50.904;11.560;2023-08-24T07:09:49;17.80;99.90
48376;DHT22;34178;50.904;11.560;2023-08-24T07:12:14;17.90;99.90
48376;DHT22;34178;50.904;11.560;2023-08-24T07:14:41;18.10;99.90
48376;DHT22;34178;50.904;11.560;2023-08-24T07:17:06;18.30;99.90
48376;DHT22;34178;50.904;11.560;2023-08-24T07:19:32;18.50;99.90
48376;DHT22;34178;50.904;11.560;2023-08-24T07:21:58;18.70;99.90
48376;DHT22;34178;50.904;11.560;2023-08-24T07:24:23;18.90;99.90
48376;DHT22;34178;50.904;11.560;2023-08-24T07:26:52;19.00;99.90
48376;DHT22;34178;50.904;11.560;2023-08-24T07:29:19;19.00;99.90
48376;DHT22;34178;50.904;11.560;2023-08-24T07:31:45;19.00;99.90
48376;DHT22;34178;50.904;11.560;2023-08-24T07:34:10;19.00;99.90
48376;DHT22;34178;50.904;11.560;2023-08-24T07:36:36;19.00;99.90
48376;DHT22;34178;50.904;11.560;2023-08-24T07:39:02;19.00;99.90
48376;DHT22;34178;50.904;11.560;2023-08-24T07:41:28;19.10;99.90
48376;DHT22;34178;50.904;11.560;2023-08-24T07:43:54;19.20;99.90
48376;DHT22;34178;50.904;11.560;2023-08-24T07:46:20;19.40;99.90
48376;DHT22;34178;50.904;11.560;2023-08-24T07:48:46;19.50;99.90
48376;DHT22;34178;50.904;11.560;2023-08-24T07:51:11;19.70;99.90
48376;DHT22;34178;50.904;11.560;2023-08-24T07:53:37;19.90;99.90
48376;DHT22;34178;50.904;11.560;2023-08-24T07:56:03;20.10;99.90
48376;DHT22;34178;50.904;11.560;2023-08-24T07:58:29;20.40;99.90
48376;DHT22;34178;50.904;11.560;2023-08-24T08:00:56;20.60;99.90
48376;DHT22;34178;50.904;11.560;2023-08-24T08:03:22;20.90;99.90
48376;DHT22;34178;50.904;11.560;2023-08-24T08:05:48;21.10;99.90
48376;DHT22;34178;50.904;11.560;2023-08-24T08:08:14;21.20;99.90
48376;DHT22;34178;50.904;11.560;2023-08-24T08:10:40;21.50;99.90
48376;DHT22;34178;50.904;11.560;2023-08-24T08:13:07;21.70;99.90
48376;DHT22;34178;50.904;11.560;2023-08-24T08:15:33;21.90;99.90
48376;DHT22;34178;50.904;11.560;2023-08-24T08:17:59;22.10;99.90
48376;DHT22;34178;50.904;11.560;2023-08-24T08:20:24;22.30;99.90
48376;DHT22;34178;50.904;11.560;2023-08-24T08:22:50;22.50;99.90
48376;DHT22;34178;50.904;11.560;2023-08-24T08:25:16;22.70;99.90
48376;DHT22;34178;50.904;11.560;2023-08-24T08:27:47;22.80;99.90
48376;DHT22;34178;50.904;11.560;2023-08-24T08:30:14;22.90;99.90
48376;DHT22;34178;50.904;11.560;2023-08-24T08:32:40;23.10;99.90
48376;DHT22;34178;50.904;11.560;2023-08-24T08:35:07;23.30;99.90
48376;DHT22;34178;50.904;11.560;2023-08-24T08:37:33;23.40;99.90
48376;DHT22;34178;50.904;11.560;2023-08-24T08:39:59;23.50;99.90
48376;DHT22;34178;50.904;11.560;2023-08-24T08:42:24;23.70;99.90
48376;DHT22;34178;50.904;11.560;2023-08-24T08:44:51;23.80;99.90
48376;DHT22;34178;50.904;11.560;2023-08-24T08:47:20;23.90;99.90
48376;DHT22;34178;50.904;11.560;2023-08-24T08:49:48;24.00;99.90
48376;DHT22;34178;50.904;11.560;2023-08-24T08:52:14;24.10;99.90
48376;DHT22;34178;50.904;11.560;2023-08-24T08:54:40;24.10;99.90
48376;DHT22;34178;50.904;11.560;2023-08-24T08:57:06;24.00;99.90
48376;DHT22;34178;50.904;11.560;2023-08-24T08:59:32;23.90;99.90
48376;DHT22;34178;50.904;11.560;2023-08-24T09:02:01;23.90;99.90
48376;DHT22;34178;50.904;11.560;2023-08-24T09:04:29;23.70;99.90
48376;DHT22;34178;50.904;11.560;2023-08-24T09:06:55;23.60;99.90
48376;DHT22;34178;50.904;11.560;2023-08-24T09:09:26;23.50;99.90
48376;DHT22;34178;50.904;11.560;2023-08-24T09:11:52;23.40;99.90
48376;DHT22;34178;50.904;11.560;2023-08-24T09:14:19;23.40;99.90
48376;DHT22;34178;50.904;11.560;2023-08-24T09:16:45;23.50;99.90
48376;DHT22;34178;50.904;11.560;2023-08-24T09:19:13;23.60;99.90
48376;DHT22;34178;50.904;11.560;2023-08-24T09:21:40;23.70;99.90
48376;DHT22;34178;50.904;11.560;2023-08-24T09:24:07;23.80;99.90
48376;DHT22;34178;50.904;11.560;2023-08-24T09:26:35;23.90;99.90
48376;DHT22;34178;50.904;11.560;2023-08-24T09:29:11;24.00;99.90
48376;DHT22;34178;50.904;11.560;2023-08-24T09:31:39;24.00;99.90
48376;DHT22;34178;50.904;11.560;2023-08-24T09:34:05;24.00;99.90
48376;DHT22;34178;50.904;11.560;2023-08-24T09:36:35;24.00;99.90
48376;DHT22;34178;50.904;11.560;2023-08-24T09:39:02;24.00;99.90
48376;DHT22;34178;50.904;11.560;2023-08-24T09:41:40;24.00;99.90
48376;DHT22;34178;50.904;11.560;2023-08-24T09:44:06;24.10;99.90
48376;DHT22;34178;50.904;11.560;2023-08-24T09:46:34;24.10;99.90
48376;DHT22;34178;50.904;11.560;2023-08-24T09:49:00;24.20;99.90
48376;DHT22;34178;50.904;11.560;2023-08-24T09:51:27;24.30;99.90
48376;DHT22;34178;50.904;11.560;2023-08-24T09:53:57;24.50;99.90
48376;DHT22;34178;50.904;11.560;2023-08-24T09:56:27;24.50;99.90
48376;DHT22;34178;50.904;11.560;2023-08-24T09:58:54;24.60;99.90
48376;DHT22;34178;50.904;11.560;2023-08-24T10:01:21;24.80;99.90
48376;DHT22;34178;50.904;11.560;2023-08-24T10:03:51;24.90;99.90
48376;DHT22;34178;50.904;11.560;2023-08-24T10:06:23;25.10;99.90
48376;DHT22;34178;50.904;11.560;2023-08-24T10:08:57;25.30;99.90
48376;DHT22;34178;50.904;11.560;2023-08-24T10:11:28;25.50;99.90
48376;DHT22;34178;50.904;11.560;2023-08-24T10:16:27;25.60;99.90
48376;DHT22;34178;50.904;11.560;2023-08-24T10:18:54;25.70;99.90
48376;DHT22;34178;50.904;11.560;2023-08-24T10:21:22;25.70;99.80
48376;DHT22;34178;50.904;11.560;2023-08-24T10:23:51;25.70;99.60
48376;DHT22;34178;50.904;11.560;2023-08-24T10:26:17;25.80;99.40
48376;DHT22;34178;50.904;11.560;2023-08-24T10:28:45;25.80;99.90
48376;DHT22;34178;50.904;11.560;2023-08-24T10:31:11;25.70;99.80
48376;DHT22;34178;50.904;11.560;2023-08-24T10:33:37;25.70;98.70
48376;DHT22;34178;50.904;11.560;2023-08-24T10:36:06;25.70;98.50
48376;DHT22;34178;50.904;11.560;2023-08-24T10:38:35;25.80;99.40
48376;DHT22;34178;50.904;11.560;2023-08-24T10:41:05;25.90;99.90
48376;DHT22;34178;50.904;11.560;2023-08-24T10:43:38;25.90;99.20
48376;DHT22;34178;50.904;11.560;2023-08-24T10:46:11;25.90;99.90
48376;DHT22;34178;50.904;11.560;2023-08-24T10:56:17;26.40;99.90
48376;DHT22;34178;50.904;11.560;2023-08-24T10:58:46;26.60;99.10
48376;DHT22;34178;50.904;11.560;2023-08-24T11:01:18;27.00;99.90
48376;DHT22;34178;50.904;11.560;2023-08-24T11:03:54;27.20;98.20
48376;DHT22;34178;50.904;11.560;2023-08-24T11:06:21;27.40;98.60
48376;DHT22;34178;50.904;11.560;2023-08-24T11:08:48;27.70;98.40
48376;DHT22;34178;50.904;11.560;2023-08-24T11:11:24;27.90;99.00
48376;DHT22;34178;50.904;11.560;2023-08-24T11:16:45;28.10;98.90
48376;DHT22;34178;50.904;11.560;2023-08-24T11:19:12;28.20;97.70
48376;DHT22;34178;50.904;11.560;2023-08-24T11:21:39;28.20;97.10
48376;DHT22;34178;50.904;11.560;2023-08-24T11:24:05;28.20;97.70
48376;DHT22;34178;50.904;11.560;2023-08-24T11:26:31;28.40;98.90
48376;DHT22;34178;50.904;11.560;2023-08-24T11:28:57;28.50;96.50
48376;DHT22;34178;50.904;11.560;2023-08-24T11:31:27;28.50;95.40
48376;DHT22;34178;50.904;11.560;2023-08-24T11:33:56;28.40;96.60
48376;DHT22;34178;50.904;11.560;2023-08-24T11:36:22;28.50;96.40
48376;DHT22;34178;50.904;11.560;2023-08-24T11:38:52;28.60;95.20
48376;DHT22;34178;50.904;11.560;2023-08-24T11:41:19;28.60;96.30
48376;DHT22;34178;50.904;11.560;2023-08-24T11:43:47;28.50;96.50
48376;DHT22;34178;50.904;11.560;2023-08-24T11:46:15;28.30;96.40
48376;DHT22;34178;50.904;11.560;2023-08-24T11:48:41;28.20;97.30
48376;DHT22;34178;50.904;11.560;2023-08-24T11:51:13;28.10;95.50
48376;DHT22;34178;50.904;11.560;2023-08-24T11:53:46;28.10;95.80
48376;DHT22;34178;50.904;11.560;2023-08-24T11:56:13;28.10;96.20
48376;DHT22;34178;50.904;11.560;2023-08-24T11:58:43;28.00;96.80
48376;DHT22;34178;50.904;11.560;2023-08-24T12:01:13;28.00;96.00
48376;DHT22;34178;50.904;11.560;2023-08-24T12:03:39;28.00;96.10
48376;DHT22;34178;50.904;11.560;2023-08-24T12:06:16;28.00;96.60
48376;DHT22;34178;50.904;11.560;2023-08-24T12:08:46;28.00;96.10
48376;DHT22;34178;50.904;11.560;2023-08-24T12:11:16;28.00;93.80
48376;DHT22;34178;50.904;11.560;2023-08-24T12:13:46;28.10;94.60
48376;DHT22;34178;50.904;11.560;2023-08-24T12:16:13;28.30;94.50
48376;DHT22;34178;50.904;11.560;2023-08-24T12:18:51;28.80;94.20
48376;DHT22;34178;50.904;11.560;2023-08-24T12:21:18;29.50;93.30
48376;DHT22;34178;50.904;11.560;2023-08-24T12:23:54;30.40;93.90
48376;DHT22;34178;50.904;11.560;2023-08-24T12:26:20;31.20;91.80
48376;DHT22;34178;50.904;11.560;2023-08-24T12:28:52;32.00;91.60
48376;DHT22;34178;50.904;11.560;2023-08-24T12:31:18;32.80;91.30
48376;DHT22;34178;50.904;11.560;2023-08-24T12:33:44;33.60;90.20
48376;DHT22;34178;50.904;11.560;2023-08-24T12:36:10;34.10;85.90
48376;DHT22;34178;50.904;11.560;2023-08-24T12:38:36;34.40;83.10
48376;DHT22;34178;50.904;11.560;2023-08-24T12:41:02;34.90;84.00
48376;DHT22;34178;50.904;11.560;2023-08-24T12:43:27;35.30;82.20
48376;DHT22;34178;50.904;11.560;2023-08-24T12:45:53;35.70;79.80
48376;DHT22;34178;50.904;11.560;2023-08-24T12:48:19;36.20;80.50
48376;DHT22;34178;50.904;11.560;2023-08-24T12:50:45;36.60;77.80
48376;DHT22;34178;50.904;11.560;2023-08-24T12:53:10;37.10;77.20
48376;DHT22;34178;50.904;11.560;2023-08-24T12:55:39;37.40;75.00
48376;DHT22;34178;50.904;11.560;2023-08-24T12:58:05;37.90;73.90
48376;DHT22;34178;50.904;11.560;2023-08-24T13:00:31;38.40;72.60
48376;DHT22;34178;50.904;11.560;2023-08-24T13:02:57;38.50;71.50
48376;DHT22;34178;50.904;11.560;2023-08-24T13:05:24;38.80;71.20
48376;DHT22;34178;50.904;11.560;2023-08-24T13:07:49;38.80;67.60
48376;DHT22;34178;50.904;11.560;2023-08-24T13:10:16;39.00;66.00
48376;DHT22;34178;50.904;11.560;2023-08-24T13:12:42;38.90;68.70
48376;DHT22;34178;50.904;11.560;2023-08-24T13:15:09;39.30;69.00
48376;DHT22;34178;50.904;11.560;2023-08-24T13:17:35;39.60;65.90
48376;DHT22;34178;50.904;11.560;2023-08-24T13:20:00;39.90;68.50
48376;DHT22;34178;50.904;11.560;2023-08-24T13:22:26;40.10;67.20
48376;DHT22;34178;50.904;11.560;2023-08-24T13:24:52;40.40;63.30
48376;DHT22;34178;50.904;11.560;2023-08-24T13:27:17;40.60;65.30
48376;DHT22;34178;50.904;11.560;2023-08-24T13:29:43;40.50;63.70
48376;DHT22;34178;50.904;11.560;2023-08-24T13:32:09;40.60;61.30
48376;DHT22;34178;50.904;11.560;2023-08-24T13:34:36;40.70;63.70
48376;DHT22;34178;50.904;11.560;2023-08-24T13:37:02;40.70;60.60
48376;DHT22;34178;50.904;11.560;2023-08-24T13:39:29;40.40;59.30
48376;DHT22;34178;50.904;11.560;2023-08-24T13:42:01;40.30;61.80
48376;DHT22;34178;50.904;11.560;2023-08-24T13:44:26;40.80;64.20
48376;DHT22;34178;50.904;11.560;2023-08-24T13:46:52;41.50;61.00
48376;DHT22;34178;50.904;11.560;2023-08-24T13:49:21;41.90;61.30
48376;DHT22;34178;50.904;11.560;2023-08-24T13:51:47;42.00;59.60
48376;DHT22;34178;50.904;11.560;2023-08-24T13:54:17;41.80;60.60
48376;DHT22;34178;50.904;11.560;2023-08-24T13:56:48;42.10;61.60
48376;DHT22;34178;50.904;11.560;2023-08-24T13:59:14;42.30;58.60
48376;DHT22;34178;50.904;11.560;2023-08-24T14:01:41;42.10;59.80
48376;DHT22;34178;50.904;11.560;2023-08-24T14:04:07;41.40;60.10
48376;DHT22;34178;50.904;11.560;2023-08-24T14:06:34;40.60;60.00
48376;DHT22;34178;50.904;11.560;2023-08-24T14:09:03;40.30;60.30
48376;DHT22;34178;50.904;11.560;2023-08-24T14:11:30;40.20;59.40
48376;DHT22;34178;50.904;11.560;2023-08-24T14:13:55;40.20;61.00
48376;DHT22;34178;50.904;11.560;2023-08-24T14:16:21;40.10;58.10
48376;DHT22;34178;50.904;11.560;2023-08-24T14:18:47;39.50;62.50
48376;DHT22;34178;50.904;11.560;2023-08-24T14:21:13;38.80;60.30
48376;DHT22;34178;50.904;11.560;2023-08-24T14:23:40;38.00;65.20
48376;DHT22;34178;50.904;11.560;2023-08-24T14:26:05;37.00;67.40
48376;DHT22;34178;50.904;11.560;2023-08-24T14:28:54;36.20;72.70
48376;DHT22;34178;50.904;11.560;2023-08-24T14:31:29;36.10;71.70
48376;DHT22;34178;50.904;11.560;2023-08-24T14:33:56;36.10;73.10
48376;DHT22;34178;50.904;11.560;2023-08-24T14:36:22;36.60;71.00
48376;DHT22;34178;50.904;11.560;2023-08-24T14:38:49;36.60;68.20
48376;DHT22;34178;50.904;11.560;2023-08-24T14:41:15;37.00;67.10
48376;DHT22;34178;50.904;11.560;2023-08-24T14:43:41;37.30;67.80
48376;DHT22;34178;50.904;11.560;2023-08-24T14:46:07;37.50;69.10
48376;DHT22;34178;50.904;11.560;2023-08-24T14:48:34;37.30;68.80
48376;DHT22;34178;50.904;11.560;2023-08-24T14:51:00;37.30;69.40
48376;DHT22;34178;50.904;11.560;2023-08-24T14:53:26;37.50;69.00
48376;DHT22;34178;50.904;11.560;2023-08-24T14:55:53;37.70;69.00
48376;DHT22;34178;50.904;11.560;2023-08-24T14:58:20;38.40;68.20
48376;DHT22;34178;50.904;11.560;2023-08-24T15:00:46;39.50;66.80
48376;DHT22;34178;50.904;11.560;2023-08-24T15:03:13;39.70;64.80
48376;DHT22;34178;50.904;11.560;2023-08-24T15:05:46;40.10;65.30
48376;DHT22;34178;50.904;11.560;2023-08-24T15:08:13;40.80;67.10
48376;DHT22;34178;50.904;11.560;2023-08-24T15:10:39;42.00;62.20
48376;DHT22;34178;50.904;11.560;2023-08-24T15:13:05;42.80;63.10
48376;DHT22;34178;50.904;11.560;2023-08-24T15:15:34;43.70;60.70
48376;DHT22;34178;50.904;11.560;2023-08-24T15:18:00;44.10;60.50
48376;DHT22;34178;50.904;11.560;2023-08-24T15:20:26;43.50;58.70
48376;DHT22;34178;50.904;11.560;2023-08-24T15:22:51;42.90;59.80
48376;DHT22;34178;50.904;11.560;2023-08-24T15:25:17;43.00;63.30
48376;DHT22;34178;50.904;11.560;2023-08-24T15:27:43;41.70;63.50
48376;DHT22;34178;50.904;11.560;2023-08-24T15:30:09;40.10;64.90